createdAt,value
2018-08-05T00:01:56.835Z,100439.00
2018-08-05T00:07:00.064Z,100450.00
2018-08-05T00:12:03.266Z,100453.00
2018-08-05T00:17:06.414Z,100453.00
2018-08-05T00:22:09.396Z,100445.00
2018-08-05T00:27:12.452Z,100451.00
2018-08-05T00:32:15.752Z,100437.00
2018-08-05T00:37:18.767Z,100445.00
2018-08-05T00:42:21.992Z,100443.00
2018-08-05T00:47:25.160Z,100431.00
2018-08-05T00:52:28.185Z,100442.00
2018-08-05T00:57:31.521Z,100448.00
2018-08-05T01:02:34.739Z,100442.00
2018-08-05T01:07:38.072Z,100442.00
2018-08-05T01:12:41.184Z,100451.00
2018-08-05T01:17:44.163Z,100460.00
2018-08-05T01:22:47.164Z,100467.00
2018-08-05T01:27:50.559Z,100468.00
2018-08-05T01:32:53.539Z,100470.00
2018-08-05T01:37:56.639Z,100473.00
2018-08-05T01:42:59.588Z,100472.00
2018-08-05T01:48:02.791Z,100476.00
2018-08-05T01:53:05.788Z,100482.00
2018-08-05T01:58:08.843Z,100490.00
2018-08-05T02:03:12.157Z,100491.00
2018-08-05T02:08:15.136Z,100486.00
2018-08-05T02:13:18.315Z,100477.00
2018-08-05T02:18:21.627Z,100483.00
2018-08-05T02:23:24.675Z,100488.00
2018-08-05T02:28:27.655Z,100490.00
2018-08-05T02:33:30.624Z,100495.00
2018-08-05T02:38:33.855Z,100505.00
2018-08-05T02:43:36.850Z,100507.00
2018-08-05T02:48:39.848Z,100509.00
2018-08-05T02:53:42.916Z,100511.00
2018-08-05T02:58:46.020Z,100510.00
2018-08-05T03:03:49.012Z,100525.00
2018-08-05T03:08:52.115Z,100521.00
2018-08-05T03:13:55.040Z,100527.00
2018-08-05T03:18:58.001Z,100531.00
2018-08-05T03:24:01.062Z,100532.00
2018-08-05T03:29:04.168Z,100534.00
2018-08-05T03:34:07.409Z,100541.00
2018-08-05T03:39:10.551Z,100542.00
2018-08-05T03:44:13.655Z,100558.00
2018-08-05T03:49:16.838Z,100549.00
2018-08-05T03:54:20.008Z,100549.00
2018-08-05T03:59:23.015Z,100554.00
2018-08-05T04:04:25.947Z,100565.00
2018-08-05T04:09:28.893Z,100567.00
2018-08-05T04:14:31.913Z,100572.00
2018-08-05T04:19:34.833Z,100578.00
2018-08-05T04:24:37.996Z,100576.00
2018-08-05T04:29:41.168Z,100573.00
2018-08-05T04:34:44.487Z,100583.00
2018-08-05T04:39:47.789Z,100587.00
2018-08-05T04:44:50.947Z,100586.00
2018-08-05T04:49:54.115Z,100594.00
2018-08-05T04:54:57.307Z,100596.00
2018-08-05T05:00:00.331Z,100603.00
2018-08-05T05:05:03.632Z,100612.00
2018-08-05T05:10:06.799Z,100618.00
2018-08-05T05:15:10.221Z,100628.00
2018-08-05T05:20:13.347Z,100631.00
2018-08-05T05:25:16.339Z,100639.00
2018-08-05T05:30:19.343Z,100644.00
2018-08-05T05:35:22.351Z,100647.00
2018-08-05T05:40:25.346Z,100643.00
2018-08-05T05:45:28.335Z,100649.00
2018-08-05T05:50:31.493Z,100667.00
2018-08-05T05:55:34.507Z,100677.00
2018-08-05T06:00:37.504Z,100673.00
2018-08-05T06:05:40.522Z,100669.00
2018-08-05T06:10:43.711Z,100690.00
2018-08-05T06:15:46.725Z,100678.00
2018-08-05T06:20:49.990Z,100688.00
2018-08-05T06:25:52.988Z,100687.00
2018-08-05T06:30:56.134Z,100695.00
2018-08-05T06:35:59.340Z,100691.00
2018-08-05T06:41:02.568Z,100698.00
2018-08-05T06:46:05.967Z,100702.00
2018-08-05T06:51:09.193Z,100690.00
2018-08-05T06:56:12.318Z,100691.00
2018-08-05T07:01:15.499Z,100684.00
2018-08-05T07:06:18.668Z,100685.00
2018-08-05T07:11:21.928Z,100694.00
2018-08-05T07:16:25.227Z,100699.00
2018-08-05T07:21:28.241Z,100699.00
2018-08-05T07:26:31.240Z,100694.00
2018-08-05T07:31:34.305Z,100696.00
2018-08-05T07:36:37.276Z,100709.00
2018-08-05T07:41:40.252Z,100700.00
2018-08-05T07:46:43.731Z,100716.00
2018-08-05T07:51:47.011Z,100720.00
2018-08-05T07:56:50.237Z,100725.00
2018-08-05T08:01:53.397Z,100718.00
2018-08-05T08:06:56.386Z,100728.00
2018-08-05T08:11:59.601Z,100730.00
2018-08-05T08:17:02.627Z,100726.00
2018-08-05T08:22:05.669Z,100727.00
2018-08-05T08:27:09.024Z,100738.00
2018-08-05T08:32:12.057Z,100740.00
2018-08-05T08:37:15.088Z,100741.00
2018-08-05T08:42:18.358Z,100740.00
2018-08-05T08:47:21.675Z,100734.00
2018-08-05T08:52:24.860Z,100737.00
2018-08-05T08:57:27.900Z,100744.00
2018-08-05T09:02:30.900Z,100713.00
2018-08-05T09:07:34.110Z,100728.00
2018-08-05T09:12:37.659Z,100731.00
2018-08-05T09:17:40.685Z,100725.00
2018-08-05T09:22:44.001Z,100721.00
2018-08-05T09:27:47.195Z,100723.00
2018-08-05T09:32:50.349Z,100726.00
2018-08-05T09:37:53.443Z,100725.00
2018-08-05T09:42:56.454Z,100733.00
2018-08-05T09:47:59.760Z,100727.00
2018-08-05T09:53:02.872Z,100728.00
2018-08-05T09:58:06.265Z,100718.00
2018-08-05T10:03:09.413Z,100716.00
2018-08-05T10:08:12.338Z,100723.00
2018-08-05T10:13:15.368Z,100721.00
2018-08-05T10:18:18.587Z,100713.00
2018-08-05T10:23:21.808Z,100706.00
2018-08-05T10:28:24.847Z,100708.00
2018-08-05T10:33:28.121Z,100711.00
2018-08-05T10:38:31.432Z,100719.00
2018-08-05T10:43:34.481Z,100705.00
2018-08-05T10:48:37.714Z,100705.00
2018-08-05T10:53:40.894Z,100698.00
2018-08-05T10:58:43.967Z,100701.00
2018-08-05T11:03:46.980Z,100692.00
2018-08-05T11:08:50.311Z,100686.00
2018-08-05T11:13:53.587Z,100671.00
2018-08-05T11:18:56.793Z,100679.00
2018-08-05T11:23:59.805Z,100672.00
2018-08-05T11:29:03.104Z,100685.00
2018-08-05T11:34:06.168Z,100689.00
2018-08-05T11:39:11.291Z,100685.00
2018-08-05T11:44:14.485Z,100679.00
2018-08-05T11:49:18.486Z,100672.00
2018-08-05T11:54:21.646Z,100674.00
2018-08-05T11:59:24.815Z,100675.00
2018-08-05T12:04:27.880Z,100671.00
2018-08-05T12:09:30.955Z,100669.00
2018-08-05T12:14:33.977Z,100654.00
2018-08-05T12:19:37.462Z,100659.00
2018-08-05T12:24:40.657Z,100651.00
2018-08-05T12:29:43.869Z,100641.00
2018-08-05T12:34:47.105Z,100650.00
2018-08-05T12:39:50.141Z,100640.00
2018-08-05T12:44:53.381Z,100640.00
2018-08-05T12:49:56.518Z,100636.00
2018-08-05T12:54:59.552Z,100625.00
2018-08-05T13:00:02.860Z,100616.00
2018-08-05T13:05:06.509Z,100613.00
2018-08-05T13:10:09.600Z,100603.00
2018-08-05T13:15:12.876Z,100603.00
2018-08-05T13:20:16.268Z,100600.00
2018-08-05T13:25:19.321Z,100609.00
2018-08-05T13:30:22.680Z,100612.00
2018-08-05T13:35:25.924Z,100609.00
2018-08-05T13:40:29.323Z,100598.00
2018-08-05T13:45:32.714Z,100600.00
2018-08-05T13:50:36.119Z,100595.00
2018-08-05T13:55:39.188Z,100592.00
2018-08-05T14:00:42.456Z,100577.00
2018-08-05T14:05:45.752Z,100579.00
2018-08-05T14:10:48.987Z,100574.00
2018-08-05T14:15:52.119Z,100560.00
2018-08-05T14:20:55.174Z,100552.00
2018-08-05T14:25:58.280Z,100557.00
2018-08-05T14:31:01.713Z,100560.00
2018-08-05T14:36:05.187Z,100549.00
2018-08-05T14:41:08.605Z,100549.00
2018-08-05T14:46:11.690Z,100540.00
2018-08-05T14:51:14.955Z,100539.00
2018-08-05T14:56:17.973Z,100545.00
2018-08-05T15:01:20.994Z,100537.00
2018-08-05T15:06:24.263Z,100542.00
2018-08-05T15:11:27.165Z,100534.00
2018-08-05T15:16:30.367Z,100518.00
2018-08-05T15:21:33.445Z,100527.00
2018-08-05T15:26:36.783Z,100523.00
2018-08-05T15:31:39.792Z,100516.00
2018-08-05T15:36:42.783Z,100514.00
2018-08-05T15:41:45.996Z,100510.00
2018-08-05T15:46:49.042Z,100512.00
2018-08-05T15:51:52.323Z,100514.00
2018-08-05T15:56:55.631Z,100509.00
2018-08-05T16:01:58.886Z,100502.00
2018-08-05T16:07:02.083Z,100508.00
2018-08-05T16:12:05.259Z,100505.00
2018-08-05T16:17:08.327Z,100488.00
2018-08-05T16:22:11.573Z,100493.00
2018-08-05T16:27:14.661Z,100482.00
2018-08-05T16:32:17.992Z,100489.00
2018-08-05T16:37:21.294Z,100482.00
2018-08-05T16:42:24.367Z,100485.00
2018-08-05T16:47:27.411Z,100486.00
2018-08-05T16:52:30.738Z,100480.00
2018-08-05T16:57:34.048Z,100468.00
2018-08-05T17:02:37.334Z,100481.00
2018-08-05T17:07:40.746Z,100477.00
2018-08-05T17:12:43.963Z,100467.00
2018-08-05T17:17:47.273Z,100477.00
2018-08-05T17:22:50.699Z,100483.00
2018-08-05T17:27:54.073Z,100474.00
2018-08-05T17:32:57.111Z,100478.00
2018-08-05T17:38:00.575Z,100479.00
2018-08-05T17:43:03.657Z,100482.00
2018-08-05T17:48:07.165Z,100482.00
2018-08-05T17:53:10.561Z,100483.00
2018-08-05T17:58:13.786Z,100479.00
2018-08-05T18:03:16.953Z,100482.00
2018-08-05T18:08:20.088Z,100478.00
2018-08-05T18:13:23.398Z,100471.00
2018-08-05T18:18:26.858Z,100478.00
2018-08-05T18:23:30.235Z,100477.00
2018-08-05T18:28:33.632Z,100468.00
2018-08-05T18:33:36.799Z,100476.00
2018-08-05T18:38:39.927Z,100485.00
2018-08-05T18:43:43.298Z,100476.00
2018-08-05T18:48:46.468Z,100478.00
2018-08-05T18:53:49.992Z,100480.00
2018-08-05T18:58:53.312Z,100482.00
2018-08-05T19:03:56.662Z,100481.00
2018-08-05T19:09:00.371Z,100472.00
2018-08-05T19:14:03.491Z,100490.00
2018-08-05T19:19:06.645Z,100495.00
2018-08-05T19:24:09.845Z,100512.00
2018-08-05T19:29:13.168Z,100509.00
2018-08-05T19:34:16.303Z,100514.00
2018-08-05T19:39:19.417Z,100518.00
2018-08-05T19:44:22.718Z,100522.00
2018-08-05T19:49:25.978Z,100528.00
2018-08-05T19:54:29.724Z,100527.00
2018-08-05T19:59:32.945Z,100527.00
2018-08-05T20:04:36.146Z,100533.00
2018-08-05T20:09:39.426Z,100542.00
2018-08-05T20:14:42.640Z,100544.00
2018-08-05T20:19:46.061Z,100545.00
2018-08-05T20:24:49.370Z,100558.00
2018-08-05T20:29:52.462Z,100546.00
2018-08-05T20:34:55.606Z,100551.00
2018-08-05T20:39:58.898Z,100547.00
2018-08-05T20:45:01.973Z,100560.00
2018-08-05T20:50:05.337Z,100556.00
2018-08-05T20:55:08.601Z,100561.00
2018-08-05T21:00:13.187Z,100564.00
2018-08-05T21:05:16.331Z,100557.00
2018-08-05T21:10:19.415Z,100561.00
2018-08-05T21:15:22.476Z,100569.00
2018-08-05T21:20:25.759Z,100574.00
2018-08-05T21:25:28.823Z,100573.00
2018-08-05T21:30:32.002Z,100576.00
2018-08-05T21:35:35.440Z,100571.00
2018-08-05T21:40:38.835Z,100580.00
2018-08-05T21:45:42.024Z,100577.00
2018-08-05T21:50:45.276Z,100566.00
2018-08-05T21:55:48.568Z,100557.00
2018-08-05T22:00:51.636Z,100563.00
2018-08-05T22:05:54.843Z,100565.00
2018-08-05T22:10:58.083Z,100561.00
2018-08-05T22:16:01.095Z,100562.00
2018-08-05T22:21:04.245Z,100561.00
2018-08-05T22:26:07.356Z,100557.00
2018-08-05T22:31:10.625Z,100555.00
2018-08-05T22:36:13.682Z,100552.00
2018-08-05T22:41:16.870Z,100553.00
2018-08-05T22:46:20.012Z,100547.00
2018-08-05T22:51:23.233Z,100542.00
2018-08-05T22:56:26.456Z,100542.00
2018-08-05T23:01:29.767Z,100535.00
2018-08-05T23:06:32.976Z,100537.00
2018-08-05T23:11:36.021Z,100541.00
2018-08-05T23:16:39.027Z,100537.00
2018-08-05T23:21:42.027Z,100545.00
2018-08-05T23:26:45.040Z,100543.00
2018-08-05T23:31:48.199Z,100546.00
2018-08-05T23:36:51.402Z,100543.00
2018-08-05T23:41:54.720Z,100545.00
2018-08-05T23:46:57.936Z,100534.00
2018-08-05T23:52:01.133Z,100537.00
2018-08-05T23:57:05.267Z,100537.00
